الصفحة الرئيسية
METAR-TAF:

METAR-TAF

مطار :

مطار زامبوانجا الدولي

Zamboanga, الفلبين

دائرة عرض: 06-54N, خط طول: 122-04E, ارتفاع: 5 متر

مراقبة الطقس الحالي

تاريخ ووقت الإصدار 33 دقيقة قبل الساعة 12:00UTC
ريح 1 عقدةمن اتجاهات متغيرة
درجة الحرارة 26°درجة مئوية
الرطوبة 89%
ضغط 1012 hPa
الرؤية 10 كم أو أكثر
غيوم قليلة على ارتفاع 1600 قدم, مزنة ركامية.
غيوم قليلة على ارتفاع 1700 قدم
غيوم متفرقة على ارتفاع 9000 قدم

METAR: RPMZ 231200Z VRB01KT 9999 FEW016CB FEW017 SCT090 26/24 Q1012 RMK A2988 CB NW-NE

زمن: 20:33 (12:33 UTC)

توقعات

تاريخ ووقت الإصدار 1ساعة و 33 دقيقة قبل الساعة 11:00UTC
التوقعات صالحة من23 الساعة 12 UTC إلى 24 الساعة 12 UTC
ريح 4 عقدة من الجنوب/الجنوب الغربي
الرؤية 10 كم أو أكثر
غيوم قليلة على ارتفاع 1700 قدم
غيوم متفرقة على ارتفاع 30000 قدم
مؤقت
من 23 الساعة 12 UTC إلى 23 الساعة 18 UTC
ريح 2 عقدةمن اتجاهات متغيرة
غيوم قليلة على ارتفاع 1600 قدم, مزنة ركامية.
غيوم قليلة على ارتفاع 1700 قدم
غيوم مفككة على ارتفاع 30000 قدم

TAF: RPMZ 231100Z 2312/2412 20004KT 9999 FEW017 SCT300 TEMPO 2312/2318 VRB02KT FEW016CB FEW017 BKN300

أرصاد الطقس والتوقعات من أكثر من 4000 مطار (تقارير الطقس للمطار METAR والتنبؤ بالطقس بالمطارTAF).

المحطات المتاحة هي النقط الصفراء والحمراء على الخريطة.

حرك المؤشر فوق النقطة لمعرفة اسم المحطة.

ثم انقر لمعرفة أرصاد وتوقعات الطقس.

لتغيير الخارطة: اضغط على الأزرار الخضراء مع رمز الصليب الأسود للتكبير. على الزر الأخضر مع شرطة للتصغير، أو على الأسهم الخضراء للخرائط المجاورة.


METAR-TAF: